sensor_id;sensor_type;location;lat;lon;timestamp;temperature;humidity
20714;DHT22;10518;50.742;4.226;2024-01-15T00:02:23;2.60;99.90
20714;DHT22;10518;50.742;4.226;2024-01-15T00:04:49;2.50;99.90
20714;DHT22;10518;50.742;4.226;2024-01-15T00:07:15;2.50;99.90
20714;DHT22;10518;50.742;4.226;2024-01-15T00:09:40;2.50;99.90
20714;DHT22;10518;50.742;4.226;2024-01-15T00:12:06;2.50;99.90
20714;DHT22;10518;50.742;4.226;2024-01-15T00:14:32;2.50;99.90
20714;DHT22;10518;50.742;4.226;2024-01-15T00:16:57;2.50;99.90
20714;DHT22;10518;50.742;4.226;2024-01-15T00:19:23;2.40;99.90
20714;DHT22;10518;50.742;4.226;2024-01-15T00:21:49;2.50;99.90
20714;DHT22;10518;50.742;4.226;2024-01-15T00:24:15;2.50;99.90
20714;DHT22;10518;50.742;4.226;2024-01-15T00:26:41;2.40;99.90
20714;DHT22;10518;50.742;4.226;2024-01-15T00:29:09;2.40;99.90
20714;DHT22;10518;50.742;4.226;2024-01-15T00:31:35;2.40;99.90
20714;DHT22;10518;50.742;4.226;2024-01-15T00:34:01;2.30;99.90
20714;DHT22;10518;50.742;4.226;2024-01-15T00:36:27;2.20;99.90
20714;DHT22;10518;50.742;4.226;2024-01-15T00:38:53;2.20;99.90
20714;DHT22;10518;50.742;4.226;2024-01-15T00:41:19;2.20;99.90
20714;DHT22;10518;50.742;4.226;2024-01-15T00:43:45;2.10;99.90
20714;DHT22;10518;50.742;4.226;2024-01-15T00:46:10;2.10;99.90
20714;DHT22;10518;50.742;4.226;2024-01-15T00:48:36;2.00;99.90
20714;DHT22;10518;50.742;4.226;2024-01-15T00:51:03;2.00;99.90
20714;DHT22;10518;50.742;4.226;2024-01-15T00:53:29;2.00;99.90
20714;DHT22;10518;50.742;4.226;2024-01-15T00:55:54;2.00;99.90
20714;DHT22;10518;50.742;4.226;2024-01-15T00:58:20;2.10;99.90
20714;DHT22;10518;50.742;4.226;2024-01-15T01:00:45;2.00;99.90
20714;DHT22;10518;50.742;4.226;2024-01-15T01:03:11;2.10;99.90
20714;DHT22;10518;50.742;4.226;2024-01-15T01:05:36;2.10;99.90
20714;DHT22;10518;50.742;4.226;2024-01-15T01:08:03;2.10;99.90
20714;DHT22;10518;50.742;4.226;2024-01-15T01:10:28;2.20;99.90
20714;DHT22;10518;50.742;4.226;2024-01-15T01:12:54;2.20;99.90
20714;DHT22;10518;50.742;4.226;2024-01-15T01:15:20;2.30;99.90
20714;DHT22;10518;50.742;4.226;2024-01-15T01:17:45;2.20;99.90
20714;DHT22;10518;50.742;4.226;2024-01-15T01:20:11;2.30;99.90
20714;DHT22;10518;50.742;4.226;2024-01-15T01:22:37;2.30;99.90
20714;DHT22;10518;50.742;4.226;2024-01-15T01:25:03;2.30;99.90
20714;DHT22;10518;50.742;4.226;2024-01-15T01:27:28;2.30;99.90
20714;DHT22;10518;50.742;4.226;2024-01-15T01:29:54;2.30;99.90
20714;DHT22;10518;50.742;4.226;2024-01-15T01:32:20;2.30;99.90
20714;DHT22;10518;50.742;4.226;2024-01-15T01:34:45;2.40;99.90
20714;DHT22;10518;50.742;4.226;2024-01-15T01:37:11;2.30;99.90
20714;DHT22;10518;50.742;4.226;2024-01-15T01:39:41;2.40;99.90
20714;DHT22;10518;50.742;4.226;2024-01-15T01:42:07;2.40;99.90
20714;DHT22;10518;50.742;4.226;2024-01-15T01:44:33;2.40;99.90
20714;DHT22;10518;50.742;4.226;2024-01-15T01:46:59;2.40;99.90
20714;DHT22;10518;50.742;4.226;2024-01-15T01:49:29;2.50;99.90
20714;DHT22;10518;50.742;4.226;2024-01-15T01:51:58;2.50;99.90
20714;DHT22;10518;50.742;4.226;2024-01-15T01:54:27;2.60;99.90
20714;DHT22;10518;50.742;4.226;2024-01-15T01:56:54;2.60;99.90
20714;DHT22;10518;50.742;4.226;2024-01-15T01:59:22;2.60;99.90
20714;DHT22;10518;50.742;4.226;2024-01-15T02:01:49;2.70;99.90
20714;DHT22;10518;50.742;4.226;2024-01-15T02:04:15;2.60;99.90
20714;DHT22;10518;50.742;4.226;2024-01-15T02:06:41;2.70;99.90
20714;DHT22;10518;50.742;4.226;2024-01-15T02:09:08;2.70;99.90
20714;DHT22;10518;50.742;4.226;2024-01-15T02:11:34;2.70;99.90
20714;DHT22;10518;50.742;4.226;2024-01-15T02:14:00;2.60;99.90
20714;DHT22;10518;50.742;4.226;2024-01-15T02:16:26;2.70;99.90
20714;DHT22;10518;50.742;4.226;2024-01-15T02:18:52;2.90;99.90
20714;DHT22;10518;50.742;4.226;2024-01-15T02:21:17;2.90;99.90
20714;DHT22;10518;50.742;4.226;2024-01-15T02:23:43;2.70;99.90
20714;DHT22;10518;50.742;4.226;2024-01-15T02:26:09;2.70;99.90
20714;DHT22;10518;50.742;4.226;2024-01-15T02:28:34;2.70;99.90
20714;DHT22;10518;50.742;4.226;2024-01-15T02:31:00;2.70;99.90
20714;DHT22;10518;50.742;4.226;2024-01-15T02:33:26;2.60;99.90
20714;DHT22;10518;50.742;4.226;2024-01-15T02:35:51;2.60;99.90
20714;DHT22;10518;50.742;4.226;2024-01-15T02:38:17;2.70;99.90
20714;DHT22;10518;50.742;4.226;2024-01-15T02:40:44;2.70;99.90
20714;DHT22;10518;50.742;4.226;2024-01-15T02:43:10;2.80;99.90
20714;DHT22;10518;50.742;4.226;2024-01-15T02:45:35;2.70;99.90
20714;DHT22;10518;50.742;4.226;2024-01-15T02:48:01;2.70;99.90
20714;DHT22;10518;50.742;4.226;2024-01-15T02:50:27;2.70;99.90
20714;DHT22;10518;50.742;4.226;2024-01-15T02:52:52;2.80;99.90
20714;DHT22;10518;50.742;4.226;2024-01-15T02:55:18;2.70;99.90
20714;DHT22;10518;50.742;4.226;2024-01-15T02:57:44;2.60;99.90
20714;DHT22;10518;50.742;4.226;2024-01-15T03:00:10;2.70;99.90
20714;DHT22;10518;50.742;4.226;2024-01-15T03:02:39;2.60;99.90
20714;DHT22;10518;50.742;4.226;2024-01-15T03:05:06;2.80;99.90
20714;DHT22;10518;50.742;4.226;2024-01-15T03:07:33;2.70;99.90
20714;DHT22;10518;50.742;4.226;2024-01-15T03:09:58;2.70;99.90
20714;DHT22;10518;50.742;4.226;2024-01-15T03:12:24;2.60;99.90
20714;DHT22;10518;50.742;4.226;2024-01-15T03:14:49;2.60;99.90
20714;DHT22;10518;50.742;4.226;2024-01-15T03:17:15;2.60;99.90
20714;DHT22;10518;50.742;4.226;2024-01-15T03:19:41;2.70;99.90
20714;DHT22;10518;50.742;4.226;2024-01-15T03:22:07;2.60;99.90
20714;DHT22;10518;50.742;4.226;2024-01-15T03:24:34;2.60;99.90
20714;DHT22;10518;50.742;4.226;2024-01-15T03:26:59;2.50;99.90
20714;DHT22;10518;50.742;4.226;2024-01-15T03:29:26;2.60;99.90
20714;DHT22;10518;50.742;4.226;2024-01-15T03:31:52;2.50;99.90
20714;DHT22;10518;50.742;4.226;2024-01-15T03:34:17;2.50;99.90
20714;DHT22;10518;50.742;4.226;2024-01-15T03:36:43;2.60;99.90
20714;DHT22;10518;50.742;4.226;2024-01-15T03:39:08;2.50;99.90
20714;DHT22;10518;50.742;4.226;2024-01-15T03:41:34;2.60;99.90
20714;DHT22;10518;50.742;4.226;2024-01-15T03:44:00;2.70;99.90
20714;DHT22;10518;50.742;4.226;2024-01-15T03:46:25;2.50;99.90
20714;DHT22;10518;50.742;4.226;2024-01-15T03:48:51;2.60;99.90
20714;DHT22;10518;50.742;4.226;2024-01-15T03:51:20;2.60;99.90
20714;DHT22;10518;50.742;4.226;2024-01-15T03:53:46;2.70;99.90
20714;DHT22;10518;50.742;4.226;2024-01-15T03:56:12;2.70;99.90
20714;DHT22;10518;50.742;4.226;2024-01-15T03:58:37;2.70;99.90
20714;DHT22;10518;50.742;4.226;2024-01-15T04:01:03;2.60;99.90
20714;DHT22;10518;50.742;4.226;2024-01-15T04:03:28;2.60;99.90
20714;DHT22;10518;50.742;4.226;2024-01-15T04:05:54;2.60;99.90
20714;DHT22;10518;50.742;4.226;2024-01-15T04:08:20;2.60;99.90
20714;DHT22;10518;50.742;4.226;2024-01-15T04:10:46;2.60;99.90
20714;DHT22;10518;50.742;4.226;2024-01-15T04:13:11;2.50;99.90
20714;DHT22;10518;50.742;4.226;2024-01-15T04:15:37;2.60;99.90
20714;DHT22;10518;50.742;4.226;2024-01-15T04:18:03;2.50;99.90
20714;DHT22;10518;50.742;4.226;2024-01-15T04:20:29;2.60;99.90
20714;DHT22;10518;50.742;4.226;2024-01-15T04:22:54;2.50;99.90
20714;DHT22;10518;50.742;4.226;2024-01-15T04:25:20;2.60;99.90
20714;DHT22;10518;50.742;4.226;2024-01-15T04:27:46;2.60;99.90
20714;DHT22;10518;50.742;4.226;2024-01-15T04:30:11;2.60;99.90
20714;DHT22;10518;50.742;4.226;2024-01-15T04:32:37;2.50;99.90
20714;DHT22;10518;50.742;4.226;2024-01-15T04:35:03;2.50;99.90
20714;DHT22;10518;50.742;4.226;2024-01-15T04:37:28;2.50;99.90
20714;DHT22;10518;50.742;4.226;2024-01-15T04:39:54;2.50;99.90
20714;DHT22;10518;50.742;4.226;2024-01-15T04:42:21;2.40;99.90
20714;DHT22;10518;50.742;4.226;2024-01-15T04:44:47;2.40;99.90
20714;DHT22;10518;50.742;4.226;2024-01-15T04:47:12;2.40;99.90
20714;DHT22;10518;50.742;4.226;2024-01-15T04:49:38;2.50;99.90
20714;DHT22;10518;50.742;4.226;2024-01-15T04:52:10;2.50;99.90
20714;DHT22;10518;50.742;4.226;2024-01-15T04:54:36;2.60;99.90
20714;DHT22;10518;50.742;4.226;2024-01-15T04:57:02;2.50;99.90
20714;DHT22;10518;50.742;4.226;2024-01-15T04:59:28;2.50;99.90
20714;DHT22;10518;50.742;4.226;2024-01-15T05:01:54;2.60;99.90
20714;DHT22;10518;50.742;4.226;2024-01-15T05:04:20;2.60;99.90
20714;DHT22;10518;50.742;4.226;2024-01-15T05:06:46;2.50;99.90
20714;DHT22;10518;50.742;4.226;2024-01-15T05:09:12;2.70;99.90
20714;DHT22;10518;50.742;4.226;2024-01-15T05:11:39;2.60;99.90
20714;DHT22;10518;50.742;4.226;2024-01-15T05:14:04;2.50;99.90
20714;DHT22;10518;50.742;4.226;2024-01-15T05:16:30;2.70;99.90
20714;DHT22;10518;50.742;4.226;2024-01-15T05:18:59;2.60;99.90
20714;DHT22;10518;50.742;4.226;2024-01-15T05:21:25;2.80;99.90
20714;DHT22;10518;50.742;4.226;2024-01-15T05:23:50;2.90;99.90
20714;DHT22;10518;50.742;4.226;2024-01-15T05:26:21;2.90;99.90
20714;DHT22;10518;50.742;4.226;2024-01-15T05:29:12;2.70;99.90
20714;DHT22;10518;50.742;4.226;2024-01-15T05:32:19;2.70;99.90
20714;DHT22;10518;50.742;4.226;2024-01-15T05:34:44;2.80;99.90
20714;DHT22;10518;50.742;4.226;2024-01-15T05:37:17;2.70;99.90
20714;DHT22;10518;50.742;4.226;2024-01-15T05:40:23;2.80;99.90
20714;DHT22;10518;50.742;4.226;2024-01-15T05:43:54;2.80;99.90
20714;DHT22;10518;50.742;4.226;2024-01-15T05:49:14;2.70;99.90
20714;DHT22;10518;50.742;4.226;2024-01-15T05:51:40;3.10;99.90
20714;DHT22;10518;50.742;4.226;2024-01-15T05:54:05;2.70;99.90
20714;DHT22;10518;50.742;4.226;2024-01-15T05:56:31;2.70;99.90
20714;DHT22;10518;50.742;4.226;2024-01-15T05:58:57;2.90;99.90
20714;DHT22;10518;50.742;4.226;2024-01-15T06:01:22;2.80;99.90
20714;DHT22;10518;50.742;4.226;2024-01-15T06:03:49;2.90;99.90
20714;DHT22;10518;50.742;4.226;2024-01-15T06:06:15;2.90;99.90
20714;DHT22;10518;50.742;4.226;2024-01-15T06:08:43;2.80;99.90
20714;DHT22;10518;50.742;4.226;2024-01-15T06:11:09;3.10;99.90
20714;DHT22;10518;50.742;4.226;2024-01-15T06:13:35;2.80;99.90
20714;DHT22;10518;50.742;4.226;2024-01-15T06:16:22;2.70;99.90
20714;DHT22;10518;50.742;4.226;2024-01-15T06:18:59;2.80;99.90
20714;DHT22;10518;50.742;4.226;2024-01-15T06:21:26;2.80;99.90
20714;DHT22;10518;50.742;4.226;2024-01-15T06:24:12;2.80;99.90
20714;DHT22;10518;50.742;4.226;2024-01-15T06:26:41;2.80;99.90
20714;DHT22;10518;50.742;4.226;2024-01-15T06:29:14;2.70;99.90
20714;DHT22;10518;50.742;4.226;2024-01-15T06:31:58;2.90;99.90
20714;DHT22;10518;50.742;4.226;2024-01-15T06:34:37;2.50;99.90
20714;DHT22;10518;50.742;4.226;2024-01-15T06:37:06;2.60;99.90
20714;DHT22;10518;50.742;4.226;2024-01-15T06:39:35;2.60;99.90
20714;DHT22;10518;50.742;4.226;2024-01-15T06:42:00;2.50;99.90
20714;DHT22;10518;50.742;4.226;2024-01-15T06:44:28;2.40;99.90
20714;DHT22;10518;50.742;4.226;2024-01-15T06:47:27;2.40;99.90
20714;DHT22;10518;50.742;4.226;2024-01-15T06:50:18;2.40;99.90
20714;DHT22;10518;50.742;4.226;2024-01-15T06:53:01;2.50;99.90
20714;DHT22;10518;50.742;4.226;2024-01-15T06:55:32;2.30;99.90
20714;DHT22;10518;50.742;4.226;2024-01-15T06:57:59;2.20;99.90
20714;DHT22;10518;50.742;4.226;2024-01-15T07:00:26;2.30;99.90
20714;DHT22;10518;50.742;4.226;2024-01-15T07:02:59;2.20;99.90
20714;DHT22;10518;50.742;4.226;2024-01-15T07:05:48;2.20;99.90
20714;DHT22;10518;50.742;4.226;2024-01-15T07:08:16;2.10;99.90
20714;DHT22;10518;50.742;4.226;2024-01-15T07:10:43;2.20;99.90
20714;DHT22;10518;50.742;4.226;2024-01-15T07:13:56;1.90;99.90
20714;DHT22;10518;50.742;4.226;2024-01-15T07:17:06;1.90;99.90
20714;DHT22;10518;50.742;4.226;2024-01-15T07:19:54;1.90;99.90
20714;DHT22;10518;50.742;4.226;2024-01-15T07:23:13;2.00;99.90
20714;DHT22;10518;50.742;4.226;2024-01-15T07:26:26;2.00;99.90
20714;DHT22;10518;50.742;4.226;2024-01-15T07:29:52;1.80;99.90
20714;DHT22;10518;50.742;4.226;2024-01-15T07:36:22;1.70;99.90
20714;DHT22;10518;50.742;4.226;2024-01-15T07:38:55;1.70;99.90
20714;DHT22;10518;50.742;4.226;2024-01-15T07:42:21;1.70;99.90
20714;DHT22;10518;50.742;4.226;2024-01-15T07:45:59;1.60;99.90
20714;DHT22;10518;50.742;4.226;2024-01-15T07:49:27;1.70;99.90
20714;DHT22;10518;50.742;4.226;2024-01-15T07:52:58;1.60;99.90
20714;DHT22;10518;50.742;4.226;2024-01-15T07:56:33;1.70;99.90
20714;DHT22;10518;50.742;4.226;2024-01-15T07:59:45;1.50;99.90
20714;DHT22;10518;50.742;4.226;2024-01-15T08:02:40;1.60;99.90
